Time;durP1;ratioP1;P1;durP2;ratioP2;P2;SDS_P1;SDS_P2;PMS_P1;PMS_P2;Temp;Humidity;BMP_temperature;BMP_pressure;BME280_temperature;BME280_humidity;BME280_pressure;Samples;Min_cycle;Max_cycle;Signal;HPM_P1;HPM_P2
2023/05/07 00:01:02;;;;;;;4.55;2.00;;;;;;;18.62;64.94;101583.81;6153136;23;20013;-47
2023/05/07 00:03:27;;;;;;;2.97;1.73;;;;;;;18.62;64.76;101575.72;6153882;23;20077;-48
2023/05/07 00:05:53;;;;;;;5.45;1.70;;;;;;;18.62;65.14;101573.03;6152958;23;20013;-48
2023/05/07 00:08:19;;;;;;;2.33;1.50;;;;;;;18.61;65.20;101574.88;6153008;23;20009;-48
2023/05/07 00:10:44;;;;;;;2.30;1.70;;;;;;;18.61;65.13;101577.56;6152711;23;20001;-47
2023/05/07 00:13:10;;;;;;;2.45;1.65;;;;;;;18.61;65.24;101577.56;6152734;23;20084;-47
2023/05/07 00:15:35;;;;;;;1.88;1.52;;;;;;;18.60;65.29;101575.00;6126687;23;20052;-47
2023/05/07 00:18:01;;;;;;;2.53;1.50;;;;;;;18.60;65.27;101575.00;6153021;23;20041;-50
2023/05/07 00:20:26;;;;;;;2.08;1.42;;;;;;;18.60;65.26;101567.78;6153803;23;20005;-48
2023/05/07 00:22:52;;;;;;;3.53;1.50;;;;;;;18.60;65.25;101573.19;6152763;23;20029;-46
2023/05/07 00:25:19;;;;;;;2.40;1.80;;;;;;;18.60;65.45;101565.09;6152613;23;20005;-50
2023/05/07 00:27:45;;;;;;;3.97;1.85;;;;;;;18.59;65.53;101557.97;6152746;23;20006;-48
2023/05/07 00:30:11;;;;;;;1.83;1.73;;;;;;;18.58;65.76;101556.25;6152645;23;20083;-48
2023/05/07 00:32:36;;;;;;;3.47;1.75;;;;;;;18.59;65.49;101560.66;6152867;23;20425;-48
2023/05/07 00:35:03;;;;;;;1.73;1.40;;;;;;;18.59;65.83;101559.81;6152845;23;20089;-46
2023/05/07 00:37:28;;;;;;;5.70;1.83;;;;;;;18.58;65.66;101556.25;6153657;23;20084;-47
2023/05/07 00:39:54;;;;;;;1.60;1.42;;;;;;;18.58;65.60;101552.69;6152631;23;20029;-48
2023/05/07 00:42:19;;;;;;;1.95;1.50;;;;;;;18.59;65.30;101551.72;6152718;23;20005;-47
2023/05/07 00:44:45;;;;;;;1.90;1.50;;;;;;;18.58;65.37;101550.00;6126429;23;20062;-49
2023/05/07 00:47:11;;;;;;;1.98;1.70;;;;;;;18.57;65.70;101549.16;6152584;23;20013;-46
2023/05/07 00:49:42;;;;;;;2.40;1.63;;;;;;;18.57;65.42;101549.16;6152416;23;20017;-49
2023/05/07 00:52:11;;;;;;;2.28;1.45;;;;;;;18.57;65.60;101546.47;6152549;23;20029;-47
2023/05/07 00:54:36;;;;;;;2.20;1.88;;;;;;;18.56;65.37;101544.75;6152506;23;20011;-46
2023/05/07 00:57:03;;;;;;;1.60;1.38;;;;;;;18.56;65.44;101547.44;6152615;23;20084;-45
2023/05/07 00:59:29;;;;;;;2.83;1.58;;;;;;;18.55;65.57;101549.28;6153170;23;20328;-45
2023/05/07 01:01:55;;;;;;;2.42;1.40;;;;;;;18.55;65.63;101551.13;6152476;23;20009;-47
2023/05/07 01:04:20;;;;;;;1.75;1.48;;;;;;;18.56;65.55;101550.13;6152549;23;20040;-48
2023/05/07 01:06:46;;;;;;;3.95;1.70;;;;;;;18.55;65.61;101551.97;6152421;23;20013;-50
2023/05/07 01:09:12;;;;;;;5.80;1.60;;;;;;;18.55;65.57;101545.75;6152606;23;20012;-50
2023/05/07 01:11:40;;;;;;;1.95;1.58;;;;;;;18.55;65.44;101543.03;6152242;23;20016;-50
2023/05/07 01:14:06;;;;;;;2.25;1.30;;;;;;;18.54;65.46;101544.03;6152301;23;20020;-49
2023/05/07 01:16:32;;;;;;;1.85;1.42;;;;;;;18.54;65.57;101541.31;6152320;23;20483;-46
2023/05/07 01:18:58;;;;;;;4.00;1.58;;;;;;;18.55;65.49;101540.34;6152926;23;20017;-46
2023/05/07 01:21:26;;;;;;;2.30;1.48;;;;;;;18.54;65.45;101538.63;6152432;23;20060;-50
2023/05/07 01:23:52;;;;;;;1.95;1.40;;;;;;;18.54;65.56;101538.63;6152693;23;20067;-49
2023/05/07 01:26:19;;;;;;;2.70;1.52;;;;;;;18.53;65.54;101534.25;6152490;23;20044;-46
2023/05/07 01:28:45;;;;;;;2.50;1.70;;;;;;;18.53;65.56;101527.00;6152763;23;20013;-48
2023/05/07 01:31:13;;;;;;;2.28;1.45;;;;;;;18.53;65.60;101526.16;6154332;23;20009;-45
2023/05/07 01:33:41;;;;;;;1.70;1.60;;;;;;;18.52;65.73;101519.03;6154332;23;20001;-49
2023/05/07 01:36:08;;;;;;;3.75;1.83;;;;;;;18.53;65.52;101516.22;6154568;23;20056;-49
2023/05/07 01:38:36;;;;;;;1.38;1.27;;;;;;;18.53;65.54;101515.34;6154241;23;20005;-45
2023/05/07 01:41:02;;;;;;;1.50;1.40;;;;;;;18.52;65.62;101513.63;6155012;23;20013;-48
2023/05/07 01:43:29;;;;;;;1.40;1.30;;;;;;;18.52;65.60;101513.63;6154186;23;20002;-50
2023/05/07 01:45:55;;;;;;;2.22;1.40;;;;;;;18.52;65.47;101502.84;6154123;23;20005;-46
2023/05/07 01:48:21;;;;;;;5.55;1.58;;;;;;;18.52;65.65;101510.94;6154199;23;20128;-48
2023/05/07 01:50:47;;;;;;;2.30;1.60;;;;;;;18.51;65.68;101507.41;6154356;23;20009;-49
2023/05/07 01:53:13;;;;;;;2.75;1.40;;;;;;;18.52;65.72;101513.63;6154239;23;20019;-46
2023/05/07 01:55:39;;;;;;;3.20;1.45;;;;;;;18.52;65.71;101505.53;6154132;23;20037;-49
2023/05/07 01:58:05;;;;;;;2.67;1.42;;;;;;;18.52;65.34;101505.53;6154026;23;20424;-50
2023/05/07 02:00:31;;;;;;;2.35;1.50;;;;;;;18.51;65.69;101512.78;6154888;23;20005;-49
2023/05/07 02:02:57;;;;;;;1.45;1.30;;;;;;;18.51;65.50;101509.25;6154005;23;20009;-47
2023/05/07 02:05:22;;;;;;;2.42;1.60;;;;;;;18.52;65.87;101508.25;6154672;23;20009;-46
2023/05/07 02:07:48;;;;;;;2.05;1.40;;;;;;;18.51;65.72;101509.25;6153937;23;20306;-48
2023/05/07 02:10:13;;;;;;;1.63;1.50;;;;;;;18.51;65.55;101514.63;6153920;23;20009;-48
2023/05/07 02:12:38;;;;;;;1.92;1.35;;;;;;;18.51;65.72;101506.56;6154292;23;20065;-46
2023/05/07 02:15:05;;;;;;;2.00;1.40;;;;;;;18.51;65.67;101509.25;6154776;23;20017;-47
2023/05/07 02:17:32;;;;;;;2.88;1.50;;;;;;;18.50;65.58;101499.44;6154621;23;20005;-48
2023/05/07 02:19:58;;;;;;;3.22;1.50;;;;;;;18.50;65.75;101500.28;6153860;23;20002;-47
2023/05/07 02:22:24;;;;;;;2.28;1.38;;;;;;;18.50;65.61;101499.44;6153911;23;20017;-47
2023/05/07 02:24:49;;;;;;;1.58;1.17;;;;;;;18.49;65.80;101495.91;6154102;23;20076;-46
2023/05/07 02:27:14;;;;;;;2.10;1.60;;;;;;;18.49;65.62;101509.38;6153903;23;20006;-47
2023/05/07 02:29:40;;;;;;;1.60;1.50;;;;;;;18.50;65.72;101511.06;6153680;23;20060;-49
2023/05/07 02:32:05;;;;;;;3.67;1.80;;;;;;;18.50;65.73;101521.00;6154004;23;20060;-48
2023/05/07 02:34:31;;;;;;;1.60;1.50;;;;;;;18.49;65.57;101511.22;6154403;23;20504;-45
2023/05/07 02:36:56;;;;;;;1.65;1.55;;;;;;;18.49;65.61;101511.22;6154034;23;20010;-47
2023/05/07 02:39:22;;;;;;;2.08;1.45;;;;;;;18.49;65.88;101509.38;6153784;23;20012;-47
2023/05/07 02:41:50;;;;;;;1.52;1.42;;;;;;;18.49;65.88;101512.06;6154024;23;20033;-48
2023/05/07 02:44:15;;;;;;;1.40;1.30;;;;;;;18.48;65.68;101517.59;6153661;23;20001;-47
2023/05/07 02:46:40;;;;;;;2.55;1.13;;;;;;;18.49;65.64;101508.53;6153582;23;20010;-45
2023/05/07 02:49:06;;;;;;;1.65;1.55;;;;;;;18.48;65.76;101506.81;6153484;23;20097;-46
2023/05/07 02:51:31;;;;;;;2.45;1.40;;;;;;;18.49;65.56;101513.91;6154613;23;20009;-48
2023/05/07 02:53:57;;;;;;;4.78;1.63;;;;;;;18.48;65.84;101515.75;6153878;23;20416;-46
2023/05/07 02:56:22;;;;;;;2.75;1.67;;;;;;;18.48;65.79;101517.59;6153876;23;20006;-50
2023/05/07 02:58:47;;;;;;;2.13;1.33;;;;;;;18.48;66.00;101517.59;6153553;23;20480;-47
2023/05/07 03:01:13;;;;;;;1.85;1.50;;;;;;;18.47;65.70;101516.75;6153564;23;20021;-47
2023/05/07 03:03:39;;;;;;;1.50;1.40;;;;;;;18.47;65.72;101515.91;6153493;23;20001;-46
2023/05/07 03:06:06;;;;;;;2.42;1.40;;;;;;;18.46;65.72;101515.03;6128053;23;20012;-48
2023/05/07 03:08:32;;;;;;;1.20;1.10;;;;;;;18.47;65.91;101510.50;6154194;23;20009;-48
2023/05/07 03:10:57;;;;;;;1.95;1.35;;;;;;;18.47;65.82;101507.81;6153824;23;20092;-46
2023/05/07 03:13:23;;;;;;;5.32;1.60;;;;;;;18.48;66.22;101517.59;6127252;23;20436;-46
2023/05/07 03:15:48;;;;;;;2.38;1.45;;;;;;;18.47;65.91;101515.91;6127428;23;20428;-46
2023/05/07 03:18:13;;;;;;;3.20;1.42;;;;;;;18.48;66.57;101506.81;6153349;23;20010;-48
2023/05/07 03:20:39;;;;;;;4.53;1.42;;;;;;;18.47;66.54;101516.75;6153517;23;20091;-49
2023/05/07 03:23:05;;;;;;;3.10;1.50;;;;;;;18.47;66.45;101505.97;6154079;23;20017;-49
2023/05/07 03:25:30;;;;;;;2.08;1.55;;;;;;;18.47;66.40;101505.97;6153246;23;20005;-48
2023/05/07 03:27:56;;;;;;;2.35;1.90;;;;;;;18.47;66.41;101505.97;6153492;23;20009;-46
2023/05/07 03:30:22;;;;;;;2.85;1.52;;;;;;;18.47;66.31;101510.50;6153101;23;20005;-48
2023/05/07 03:32:47;;;;;;;5.28;1.73;;;;;;;18.46;66.38;101503.41;6153148;23;20310;-47
2023/05/07 03:35:12;;;;;;;1.55;1.45;;;;;;;18.46;66.35;101501.53;6153340;23;20013;-48
2023/05/07 03:37:38;;;;;;;1.40;1.30;;;;;;;18.46;66.46;101498.00;6153110;23;20048;-49
2023/05/07 03:40:05;;;;;;;4.03;1.40;;;;;;;18.45;66.27;101496.28;6154212;23;20005;-46
2023/05/07 03:42:30;;;;;;;2.78;1.70;;;;;;;18.45;66.14;101499.84;6153276;23;20016;-47
2023/05/07 03:44:55;;;;;;;5.10;1.70;;;;;;;18.45;66.18;101493.56;6152882;23;20009;-49
2023/05/07 03:47:21;;;;;;;1.60;1.50;;;;;;;18.45;66.16;101501.66;6153119;23;20006;-49
2023/05/07 03:49:47;;;;;;;2.17;1.50;;;;;;;18.44;66.31;101490.03;6152872;23;20092;-48
2023/05/07 03:52:13;;;;;;;2.42;1.50;;;;;;;18.44;66.13;101490.03;6152966;23;20357;-49
2023/05/07 03:54:38;;;;;;;2.45;1.50;;;;;;;18.44;66.18;101500.81;6153478;23;20010;-46
2023/05/07 03:57:03;;;;;;;2.25;1.65;;;;;;;18.45;66.25;101496.28;6153720;23;20009;-49
2023/05/07 03:59:29;;;;;;;2.58;1.58;;;;;;;18.44;66.34;101511.59;6152922;23;20084;-49
2023/05/07 04:01:54;;;;;;;1.60;1.50;;;;;;;18.44;66.12;101516.16;6152918;23;20012;-50
2023/05/07 04:04:21;;;;;;;1.48;1.38;;;;;;;18.45;66.12;101512.44;6152964;23;20447;-46
2023/05/07 04:06:46;;;;;;;1.33;1.23;;;;;;;18.44;65.97;101511.59;6153275;23;20422;-49
2023/05/07 04:09:12;;;;;;;3.08;1.67;;;;;;;18.43;66.19;101518.00;6153197;23;20084;-48
2023/05/07 04:11:37;;;;;;;2.17;1.65;;;;;;;18.44;66.25;101521.53;6153867;23;20332;-49
2023/05/07 04:14:02;;;;;;;1.20;1.10;;;;;;;18.43;66.42;101517.13;6152506;23;20005;-49
2023/05/07 04:16:28;;;;;;;2.50;1.38;;;;;;;18.44;66.14;101529.63;6152894;23;20052;-49
2023/05/07 04:18:53;;;;;;;2.55;1.83;;;;;;;18.44;66.11;101532.34;6152815;23;20061;-48
2023/05/07 04:21:20;;;;;;;1.70;1.60;;;;;;;18.42;66.08;101529.75;6152726;23;20088;-46
2023/05/07 04:23:47;;;;;;;1.40;1.30;;;;;;;18.42;66.21;101524.38;6152980;23;19997;-47
2023/05/07 04:26:12;;;;;;;1.95;1.60;;;;;;;18.44;66.53;101526.94;6152698;23;20049;-49
2023/05/07 04:28:39;;;;;;;1.92;1.55;;;;;;;18.44;66.53;101524.25;6153290;23;20060;-49
2023/05/07 04:31:04;;;;;;;3.53;1.70;;;;;;;18.43;66.66;101531.50;6152956;23;20499;-47
2023/05/07 04:33:30;;;;;;;6.05;1.52;;;;;;;18.44;66.56;101532.34;6153003;23;20020;-50
2023/05/07 04:35:55;;;;;;;2.08;1.58;;;;;;;18.43;66.52;101528.78;6152908;23;20013;-48
2023/05/07 04:38:20;;;;;;;1.58;1.48;;;;;;;18.44;66.47;101526.94;6127137;23;20041;-50
2023/05/07 04:40:46;;;;;;;2.70;1.55;;;;;;;18.44;66.60;101526.94;6153043;23;20012;-44
2023/05/07 04:43:13;;;;;;;3.30;1.23;;;;;;;18.42;66.60;101535.16;6152753;23;20319;-49
2023/05/07 04:45:41;;;;;;;2.10;1.33;;;;;;;18.43;66.57;101530.59;6153362;23;20513;-50
2023/05/07 04:48:06;;;;;;;3.35;1.40;;;;;;;18.42;66.68;101535.16;6153505;23;20009;-46
2023/05/07 04:50:31;;;;;;;1.40;1.30;;;;;;;18.43;66.58;101536.88;6152437;23;20388;-48
2023/05/07 04:52:57;;;;;;;1.70;1.50;;;;;;;18.42;66.33;101535.16;6152531;23;20376;-47
2023/05/07 04:55:22;;;;;;;1.70;1.60;;;;;;;18.43;66.39;101541.41;6152658;23;20081;-48
2023/05/07 04:57:47;;;;;;;2.13;1.50;;;;;;;18.42;66.41;101534.31;6152498;23;20018;-46
2023/05/07 05:00:16;;;;;;;2.05;1.70;;;;;;;18.42;66.41;101534.31;6152431;23;20080;-50
2023/05/07 05:02:41;;;;;;;2.45;1.73;;;;;;;18.42;66.28;101540.53;6152342;23;20012;-47
2023/05/07 05:05:07;;;;;;;1.73;1.63;;;;;;;18.42;66.49;101539.69;6153248;23;20013;-47
2023/05/07 05:07:33;;;;;;;3.38;1.70;;;;;;;18.42;66.41;101539.69;6152752;23;20005;-49
2023/05/07 05:09:58;;;;;;;2.90;1.75;;;;;;;18.42;66.71;101542.41;6152465;23;20499;-46
2023/05/07 05:12:24;;;;;;;2.42;1.55;;;;;;;18.42;66.31;101551.34;6152567;23;20068;-47
2023/05/07 05:14:49;;;;;;;1.52;1.42;;;;;;;18.41;66.21;101549.63;6152107;23;20079;-49
2023/05/07 05:17:15;;;;;;;2.95;1.45;;;;;;;18.41;66.16;101548.75;6152324;23;20013;-49
2023/05/07 05:19:40;;;;;;;2.33;1.70;;;;;;;18.42;66.23;101547.78;6153268;23;20009;-48
2023/05/07 05:22:06;;;;;;;3.83;1.60;;;;;;;18.41;66.13;101548.75;6152705;23;20016;-49
2023/05/07 05:24:31;;;;;;;2.92;1.55;;;;;;;18.42;66.36;101550.50;6126538;23;20125;-44
2023/05/07 05:26:57;;;;;;;1.85;1.42;;;;;;;18.42;66.12;101555.88;6152497;23;20451;-49
2023/05/07 05:29:22;;;;;;;3.15;1.67;;;;;;;18.41;66.37;101559.53;6152506;23;20012;-47
2023/05/07 05:31:48;;;;;;;2.10;1.58;;;;;;;18.41;66.45;101555.03;6152438;23;20009;-49
2023/05/07 05:34:13;;;;;;;1.95;1.30;;;;;;;18.41;66.16;101563.13;6152367;23;20010;-46
2023/05/07 05:36:42;;;;;;;3.47;1.55;;;;;;;18.41;66.43;101564.94;6153187;23;20006;-48
2023/05/07 05:39:08;;;;;;;2.25;1.85;;;;;;;18.42;66.15;101569.38;6152348;23;20059;-47
2023/05/07 05:41:33;;;;;;;1.60;1.50;;;;;;;18.40;66.13;101572.19;6152551;23;20018;-48
2023/05/07 05:43:59;;;;;;;2.78;1.60;;;;;;;18.42;66.17;101578.28;6152223;23;20339;-48
2023/05/07 05:46:24;;;;;;;2.28;1.77;;;;;;;18.41;66.10;101571.22;6152467;23;20005;-47
2023/05/07 05:48:50;;;;;;;2.35;1.90;;;;;;;18.41;66.20;101570.34;6152337;23;20032;-49
2023/05/07 05:51:15;;;;;;;2.60;1.48;;;;;;;18.41;66.27;101573.03;6152347;23;20012;-50
2023/05/07 05:53:40;;;;;;;2.08;1.88;;;;;;;18.41;66.21;101570.34;6152911;23;20018;-49
2023/05/07 05:56:06;;;;;;;2.15;1.90;;;;;;;18.41;66.35;101578.41;6152293;23;20080;-46
2023/05/07 05:58:31;;;;;;;1.60;1.50;;;;;;;18.41;66.41;101575.72;6152071;23;20069;-47
2023/05/07 06:00:58;;;;;;;1.60;1.50;;;;;;;18.41;66.39;101573.91;6152233;23;20010;-49
2023/05/07 06:03:23;;;;;;;2.17;1.80;;;;;;;18.42;66.52;101577.44;6126379;23;20008;-46
2023/05/07 06:05:48;;;;;;;2.28;1.70;;;;;;;18.42;66.54;101566.66;6152528;23;20014;-48
2023/05/07 06:08:14;;;;;;;1.73;1.63;;;;;;;18.42;66.58;101566.66;6152814;23;20029;-47
2023/05/07 06:10:39;;;;;;;2.50;1.80;;;;;;;18.42;66.83;101570.22;6152411;23;20062;-49
2023/05/07 06:13:05;;;;;;;1.85;1.75;;;;;;;18.42;66.74;101574.75;6152426;23;20019;-47
2023/05/07 06:15:30;;;;;;;1.92;1.70;;;;;;;18.42;66.99;101572.91;6152823;23;20057;-48
2023/05/07 06:17:57;;;;;;;2.45;1.67;;;;;;;18.43;67.01;101576.44;6154297;23;20492;-50
2023/05/07 06:20:22;;;;;;;2.60;1.90;;;;;;;18.42;67.25;101572.91;6153845;23;20012;-50
2023/05/07 06:22:48;;;;;;;2.00;1.40;;;;;;;18.44;67.33;101581.72;6154129;23;20009;-46
2023/05/07 06:25:13;;;;;;;3.75;1.52;;;;;;;18.44;67.25;101575.47;6154601;23;20388;-49
2023/05/07 06:27:39;;;;;;;9.65;2.15;;;;;;;18.44;67.92;101576.31;6154080;23;20044;-50
2023/05/07 06:30:06;;;;;;;4.97;2.10;;;;;;;18.45;68.48;101582.56;6153549;23;20009;-45
2023/05/07 06:32:31;;;;;;;7.85;2.60;;;;;;;18.46;69.08;101581.59;6153617;23;20309;-47
2023/05/07 06:34:56;;;;;;;6.20;3.00;;;;;;;18.47;69.83;101576.06;6153716;23;20005;-45
2023/05/07 06:37:22;;;;;;;12.75;3.03;;;;;;;18.48;69.78;101577.75;6153968;23;20006;-46
2023/05/07 06:39:47;;;;;;;8.55;3.10;;;;;;;18.48;70.05;101566.97;6153643;23;20037;-50
2023/05/07 06:42:13;;;;;;;12.30;3.25;;;;;;;18.49;69.94;101578.66;6154512;23;20009;-47
2023/05/07 06:44:38;;;;;;;6.15;2.72;;;;;;;18.49;70.17;101584.03;6153847;23;20081;-49
2023/05/07 06:47:05;;;;;;;6.63;2.95;;;;;;;18.49;70.35;101578.66;6153378;23;20009;-47
2023/05/07 06:49:31;;;;;;;13.90;3.00;;;;;;;18.49;69.92;101584.03;6153229;23;20045;-48
2023/05/07 06:51:56;;;;;;;13.88;3.03;;;;;;;18.49;70.54;101589.44;6153016;23;20305;-46
2023/05/07 06:54:22;;;;;;;7.63;2.53;;;;;;;18.49;70.21;101584.88;6127394;23;20017;-46
2023/05/07 06:56:48;;;;;;;6.63;2.80;;;;;;;18.49;69.98;101581.34;6153581;23;20010;-47
2023/05/07 06:59:13;;;;;;;6.88;3.55;;;;;;;18.50;70.44;101591.13;6153712;23;20405;-46
2023/05/07 07:01:38;;;;;;;12.90;3.75;;;;;;;18.51;70.52;101595.53;6152951;23;20015;-46
2023/05/07 07:04:04;;;;;;;5.95;3.55;;;;;;;18.50;70.50;101601.91;6126075;23;20005;-48
2023/05/07 07:06:31;;;;;;;6.22;3.00;;;;;;;18.51;70.26;101603.63;6153352;23;20009;-45
2023/05/07 07:08:57;;;;;;;13.30;3.97;;;;;;;18.51;70.41;101598.25;6153693;23;20101;-48
2023/05/07 07:11:22;;;;;;;6.15;3.28;;;;;;;18.50;70.56;101596.50;6153346;23;20417;-49
2023/05/07 07:13:47;;;;;;;9.25;3.88;;;;;;;18.51;70.36;101600.94;6153226;23;20005;-47
2023/05/07 07:16:13;;;;;;;6.00;3.42;;;;;;;18.51;70.40;101595.53;6154208;23;20033;-47
2023/05/07 07:18:38;;;;;;;9.75;3.60;;;;;;;18.51;70.34;101593.69;6153397;23;20011;-46
2023/05/07 07:21:03;;;;;;;7.63;3.55;;;;;;;18.51;70.29;101592.84;6153731;23;20067;-45
2023/05/07 07:23:29;;;;;;;6.22;3.53;;;;;;;18.52;70.50;101599.94;6153250;23;20056;-48
2023/05/07 07:25:54;;;;;;;9.68;3.45;;;;;;;18.51;70.28;101595.53;6152896;23;20009;-48
2023/05/07 07:28:21;;;;;;;6.53;3.22;;;;;;;18.51;70.48;101606.34;6152580;23;20044;-49
2023/05/07 07:30:46;;;;;;;7.80;3.00;;;;;;;18.52;70.44;101606.22;6153659;23;20040;-49
2023/05/07 07:33:11;;;;;;;6.75;3.17;;;;;;;18.52;70.73;101610.72;6152789;23;20432;-49
2023/05/07 07:35:37;;;;;;;8.32;3.63;;;;;;;18.52;70.58;101605.31;6126924;23;20458;-50
2023/05/07 07:38:02;;;;;;;10.40;3.83;;;;;;;18.52;70.71;101611.59;6152988;23;20093;-49
2023/05/07 07:40:27;;;;;;;6.75;3.50;;;;;;;18.51;70.80;101604.47;6152867;23;20013;-47
2023/05/07 07:42:53;;;;;;;7.20;3.63;;;;;;;18.53;70.63;101609.75;6153013;23;20005;-48
2023/05/07 07:45:19;;;;;;;11.23;3.63;;;;;;;18.52;70.61;101616.13;6153157;23;20013;-45
2023/05/07 07:47:44;;;;;;;8.07;3.33;;;;;;;18.53;70.84;101616.00;6153816;23;20013;-48
2023/05/07 07:50:10;;;;;;;5.07;3.13;;;;;;;18.53;70.44;101618.69;6121961;23;20022;-46
2023/05/07 07:52:35;;;;;;;5.65;3.70;;;;;;;18.52;70.71;101616.13;6123676;23;20006;-47
2023/05/07 07:55:01;;;;;;;6.85;3.40;;;;;;;18.54;70.69;101619.53;6123687;23;20037;-47
2023/05/07 07:57:27;;;;;;;4.00;3.40;;;;;;;18.53;70.54;101624.06;6123596;23;20085;-49
2023/05/07 07:59:52;;;;;;;6.68;3.53;;;;;;;18.53;70.54;101617.84;6123755;23;20010;-49
2023/05/07 08:02:17;;;;;;;5.85;3.78;;;;;;;18.52;70.37;101619.69;6124336;23;20089;-49
2023/05/07 08:04:43;;;;;;;4.68;3.53;;;;;;;18.53;70.22;101617.84;6123560;23;20061;-48
2023/05/07 08:07:09;;;;;;;6.03;3.78;;;;;;;18.53;70.12;101615.13;6123814;23;20014;-47
2023/05/07 08:09:38;;;;;;;9.65;3.60;;;;;;;18.53;69.99;101615.13;6123683;23;20037;-49
2023/05/07 08:12:04;;;;;;;7.05;3.53;;;;;;;18.54;70.32;101616.84;6123103;23;20052;-47
2023/05/07 08:14:30;;;;;;;8.52;3.67;;;;;;;18.54;70.13;101614.13;6123528;23;20010;-49
2023/05/07 08:16:55;;;;;;;10.27;4.68;;;;;;;18.54;70.70;101615.00;6123418;23;20441;-47
2023/05/07 08:19:21;;;;;;;14.52;4.32;;;;;;;18.55;70.89;101622.09;6123778;23;20018;-50
2023/05/07 08:21:47;;;;;;;9.80;4.68;;;;;;;18.56;71.11;101625.66;6124130;23;20428;-50
2023/05/07 08:24:14;;;;;;;9.80;4.82;;;;;;;18.57;71.66;101630.06;6123500;23;20010;-47
2023/05/07 08:26:39;;;;;;;15.88;5.43;;;;;;;18.58;71.59;101629.06;6123729;23;20010;-49
2023/05/07 08:29:05;;;;;;;11.13;5.25;;;;;;;18.58;72.04;101626.38;6123154;23;20475;-47
2023/05/07 08:31:30;;;;;;;9.48;4.97;;;;;;;18.59;71.61;101625.41;6123315;23;20006;-50
2023/05/07 08:33:57;;;;;;;16.88;5.13;;;;;;;18.60;71.56;101626.25;6123317;23;20009;-47
2023/05/07 08:36:23;;;;;;;10.90;5.18;;;;;;;18.61;71.71;101631.50;6122924;23;20425;-47
2023/05/07 08:38:49;;;;;;;12.80;5.13;;;;;;;18.61;71.46;101636.91;6123906;23;20012;-45
2023/05/07 08:41:16;;;;;;;12.65;4.68;;;;;;;18.62;71.54;101633.25;6122957;23;20010;-47
2023/05/07 08:43:41;;;;;;;9.32;5.55;;;;;;;18.62;71.81;101630.53;6122565;23;20129;-46
2023/05/07 08:46:10;;;;;;;9.63;5.18;;;;;;;18.63;72.14;101628.69;6122485;23;20417;-45
2023/05/07 08:48:36;;;;;;;11.13;5.82;;;;;;;18.64;72.09;101630.38;6127488;23;20052;-46
2023/05/07 08:51:01;;;;;;;9.60;6.40;;;;;;;18.65;71.68;101634.81;6152323;23;20025;-49
2023/05/07 08:53:27;;;;;;;10.18;6.97;;;;;;;18.67;71.67;101630.13;6151968;23;20024;-46
2023/05/07 08:55:53;;;;;;;12.50;6.97;;;;;;;18.65;71.88;101638.34;6126422;23;20012;-51
2023/05/07 08:58:18;;;;;;;13.82;6.63;;;;;;;18.64;71.72;101636.66;6152657;23;20013;-51
2023/05/07 09:00:44;;;;;;;11.95;6.30;;;;;;;18.64;71.07;101636.66;6152164;23;20024;-50
2023/05/07 09:03:12;;;;;;;10.05;6.55;;;;;;;18.63;70.79;101636.78;6152612;23;20331;-47
2023/05/07 09:05:38;;;;;;;8.98;6.03;;;;;;;18.62;70.66;101632.34;6152551;23;20059;-47
2023/05/07 09:08:06;;;;;;;8.57;5.72;;;;;;;18.61;70.43;101636.91;6152316;23;20480;-48
2023/05/07 09:10:34;;;;;;;7.03;5.63;;;;;;;18.61;70.29;101636.06;6152539;23;20031;-47
2023/05/07 09:13:00;;;;;;;9.52;5.50;;;;;;;18.61;70.33;101630.66;6152078;23;20009;-50
2023/05/07 09:15:26;;;;;;;7.07;5.05;;;;;;;18.60;70.05;101635.22;6151872;23;20005;-47
2023/05/07 09:17:52;;;;;;;14.70;6.03;;;;;;;18.59;70.31;101636.19;6152843;23;20006;-50
2023/05/07 09:20:17;;;;;;;6.35;5.30;;;;;;;18.60;69.72;101637.03;6151719;23;20424;-47
2023/05/07 09:22:44;;;;;;;7.90;5.32;;;;;;;18.59;69.94;101635.34;6152490;23;20313;-48
2023/05/07 09:25:09;;;;;;;6.13;5.13;;;;;;;18.59;69.90;101633.50;6152696;23;20013;-50
2023/05/07 09:27:35;;;;;;;9.32;5.00;;;;;;;18.59;69.66;101638.88;6152402;23;20451;-48
2023/05/07 09:30:07;;;;;;;6.68;4.93;;;;;;;18.59;69.74;101638.88;6152488;23;20013;-49
2023/05/07 09:32:36;;;;;;;5.50;4.63;;;;;;;18.59;69.34;101641.59;6152404;23;20033;-51
2023/05/07 09:35:02;;;;;;;6.38;4.28;;;;;;;18.58;69.48;101642.56;6152616;23;20409;-50
2023/05/07 09:37:27;;;;;;;6.57;4.28;;;;;;;18.59;69.30;101638.03;6152229;23;20009;-51
2023/05/07 09:39:54;;;;;;;4.75;4.18;;;;;;;18.59;69.30;101638.88;6152974;23;20060;-48
2023/05/07 09:42:24;;;;;;;7.80;4.63;;;;;;;18.59;69.36;101641.59;6153215;23;20005;-48
2023/05/07 09:44:50;;;;;;;7.28;4.28;;;;;;;18.59;69.34;101641.59;6152873;23;20012;-51
2023/05/07 09:47:19;;;;;;;6.38;4.70;;;;;;;18.59;69.53;101644.28;6152270;23;20029;-49
2023/05/07 09:49:47;;;;;;;6.45;4.15;;;;;;;18.58;69.48;101637.16;6152482;23;20029;-51
2023/05/07 09:52:14;;;;;;;6.68;4.68;;;;;;;18.58;69.20;101642.56;6154495;23;20321;-50
2023/05/07 09:54:43;;;;;;;6.65;3.90;;;;;;;18.58;69.07;101647.94;6153407;23;20060;-49
2023/05/07 09:57:11;;;;;;;6.78;4.32;;;;;;;18.58;69.11;101647.09;6154457;23;20010;-52
2023/05/07 09:59:38;;;;;;;5.63;3.85;;;;;;;18.58;69.02;101647.09;6154034;23;20361;-49
2023/05/07 10:02:04;;;;;;;6.93;3.72;;;;;;;18.56;69.20;101636.44;6154106;23;20005;-49
2023/05/07 10:04:31;;;;;;;4.68;3.60;;;;;;;18.58;69.20;101647.94;6154358;23;20024;-50
2023/05/07 10:06:58;;;;;;;6.18;4.13;;;;;;;18.58;68.95;101641.72;6153963;23;20005;-52
2023/05/07 10:09:25;;;;;;;4.95;3.95;;;;;;;18.58;69.18;101649.78;6154008;23;20335;-51
2023/05/07 10:11:51;;;;;;;4.93;3.65;;;;;;;18.59;68.73;101644.28;6154833;23;20001;-47
2023/05/07 10:14:17;;;;;;;4.78;3.88;;;;;;;18.59;68.90;101644.28;6152536;23;20013;-51
2023/05/07 10:16:43;;;;;;;4.68;3.70;;;;;;;18.59;68.96;101644.28;6153698;23;20006;-50
2023/05/07 10:19:09;;;;;;;7.53;3.83;;;;;;;18.60;68.63;101643.31;6154089;23;20001;-51
2023/05/07 10:21:43;;;;;;;6.13;3.42;;;;;;;18.60;68.75;101640.59;6153704;23;20009;-49
2023/05/07 10:24:21;;;;;;;5.80;3.00;;;;;;;18.62;68.58;101644.03;6153576;23;20068;-51
2023/05/07 10:26:50;;;;;;;6.63;3.30;;;;;;;18.61;68.69;101646.84;6153613;23;20008;-48
2023/05/07 10:29:29;;;;;;;4.78;3.78;;;;;;;18.60;68.84;101637.91;6153685;23;20005;-50
2023/05/07 10:32:09;;;;;;;6.93;3.45;;;;;;;18.61;68.62;101639.59;6154322;23;20386;-50
2023/05/07 10:34:40;;;;;;;6.23;3.40;;;;;;;18.61;68.35;101639.59;6153670;23;20009;-48
2023/05/07 10:37:06;;;;;;;3.57;3.03;;;;;;;18.62;68.25;101641.34;6153495;23;20040;-50
2023/05/07 10:39:32;;;;;;;5.03;3.40;;;;;;;18.61;68.37;101647.69;6153636;23;20088;-50
2023/05/07 10:42:07;;;;;;;3.80;3.35;;;;;;;18.62;68.42;101649.44;6153577;23;20029;-50
2023/05/07 10:44:33;;;;;;;4.88;3.55;;;;;;;18.62;68.56;101648.53;6153417;23;20447;-49
2023/05/07 10:47:09;;;;;;;4.75;2.95;;;;;;;18.62;68.46;101645.84;6153862;23;20025;-51
2023/05/07 10:49:55;;;;;;;5.15;3.53;;;;;;;18.65;68.33;101645.59;6152528;23;20072;-50
2023/05/07 10:52:24;;;;;;;5.78;3.10;;;;;;;18.63;68.40;101643.03;6137562;23;20097;-50
2023/05/07 10:55:15;;;;;;;5.13;3.35;;;;;;;18.66;68.57;101640.06;6153097;23;20045;-51
2023/05/07 10:57:40;;;;;;;3.97;2.55;;;;;;;18.64;68.30;101639.34;6153473;23;20002;-50
2023/05/07 11:00:23;;;;;;;4.43;2.88;;;;;;;18.64;68.19;101642.06;6153492;23;20006;-50
2023/05/07 11:03:01;;;;;;;7.13;2.90;;;;;;;18.65;68.24;101641.03;6153795;23;20434;-50
2023/05/07 11:05:28;;;;;;;3.60;2.75;;;;;;;18.64;68.18;101642.06;6127738;23;20009;-50
2023/05/07 11:07:55;;;;;;;3.38;3.08;;;;;;;18.63;68.25;101637.63;6154053;23;20416;-51
2023/05/07 11:10:21;;;;;;;3.90;2.60;;;;;;;18.64;68.18;101642.06;6153466;23;20333;-50
2023/05/07 11:12:48;;;;;;;5.50;3.08;;;;;;;18.65;68.32;101648.28;6153286;23;20447;-50
2023/05/07 11:15:17;;;;;;;2.88;2.38;;;;;;;18.65;68.11;101641.03;6152973;23;20008;-51
2023/05/07 11:17:59;;;;;;;3.95;2.78;;;;;;;18.69;68.14;101641.66;6153437;23;20332;-50
2023/05/07 11:21:04;;;;;;;5.07;2.83;;;;;;;18.71;68.13;101647.75;6153589;23;20013;-50